createdAt,value
2023-11-18T00:00:18.136Z,68.40
2023-11-18T00:02:45.198Z,68.20
2023-11-18T00:05:13.062Z,67.80
2023-11-18T00:07:42.443Z,67.50
2023-11-18T00:10:12.172Z,67.90
2023-11-18T00:12:42.428Z,67.80
2023-11-18T00:15:11.650Z,67.90
2023-11-18T00:17:41.650Z,68.10
2023-11-18T00:20:13.370Z,69.10
2023-11-18T00:22:42.462Z,70.50
2023-11-18T00:25:10.202Z,70.40
2023-11-18T00:27:39.429Z,70.10
2023-11-18T00:30:09.149Z,69.40
2023-11-18T00:32:36.704Z,69.70
2023-11-18T00:35:05.749Z,69.00
2023-11-18T00:37:33.159Z,69.80
2023-11-18T00:39:59.869Z,69.80
2023-11-18T00:42:26.528Z,70.10
2023-11-18T00:44:58.410Z,69.90
2023-11-18T00:47:25.197Z,69.70
2023-11-18T00:49:53.713Z,69.00
2023-11-18T00:52:20.525Z,68.10
2023-11-18T00:54:47.408Z,68.40
2023-11-18T00:57:14.144Z,68.60
2023-11-18T00:59:49.073Z,68.30
2023-11-18T01:02:15.808Z,68.50
2023-11-18T01:04:46.867Z,68.20
2023-11-18T01:07:13.695Z,67.90
2023-11-18T01:09:41.119Z,67.60
2023-11-18T01:12:13.195Z,67.70
2023-11-18T01:14:40.923Z,68.10
2023-11-18T01:17:07.833Z,67.40
2023-11-18T01:19:37.264Z,66.90
2023-11-18T01:22:07.581Z,66.40
2023-11-18T01:24:34.937Z,66.40
2023-11-18T01:27:01.941Z,66.50
2023-11-18T01:29:28.682Z,66.60
2023-11-18T01:31:57.175Z,66.30
2023-11-18T01:34:26.845Z,66.10
2023-11-18T01:36:54.232Z,66.30
2023-11-18T01:39:21.968Z,66.50
2023-11-18T01:41:50.588Z,66.30
2023-11-18T01:44:25.273Z,66.10
2023-11-18T01:46:54.772Z,65.90
2023-11-18T01:49:22.248Z,66.10
2023-11-18T01:51:52.565Z,66.40
2023-11-18T01:54:20.626Z,66.00
2023-11-18T01:56:49.888Z,66.70
2023-11-18T01:59:19.924Z,67.60
2023-11-18T02:01:55.231Z,67.20
2023-11-18T02:04:22.973Z,67.80
2023-11-18T02:06:51.016Z,67.40
2023-11-18T02:09:28.587Z,67.50
2023-11-18T02:12:24.398Z,67.20
2023-11-18T02:14:51.587Z,67.10
2023-11-18T02:17:25.306Z,66.90
2023-11-18T02:19:54.306Z,66.90
2023-11-18T02:22:22.907Z,66.70
2023-11-18T02:24:50.109Z,67.00
2023-11-18T02:27:17.770Z,67.80
2023-11-18T02:29:48.727Z,67.70
2023-11-18T02:32:27.897Z,68.30
2023-11-18T02:35:03.739Z,67.70
2023-11-18T02:37:33.812Z,67.30
2023-11-18T02:40:16.037Z,67.60
2023-11-18T02:42:45.747Z,68.20
2023-11-18T02:45:18.059Z,69.50
2023-11-18T02:47:46.318Z,69.40
2023-11-18T02:50:20.426Z,68.90
2023-11-18T02:52:49.809Z,68.50
2023-11-18T02:55:18.986Z,68.00
2023-11-18T02:57:45.699Z,69.60
2023-11-18T03:00:20.138Z,69.60
2023-11-18T03:02:52.886Z,69.30
2023-11-18T03:05:22.816Z,68.50
2023-11-18T03:07:54.822Z,69.00
2023-11-18T03:10:24.824Z,69.00
2023-11-18T03:12:53.786Z,69.20
2023-11-18T03:15:22.602Z,69.30
2023-11-18T03:17:52.822Z,68.30
2023-11-18T03:20:20.831Z,68.60
2023-11-18T03:22:48.283Z,68.70
2023-11-18T03:25:15.681Z,68.70
2023-11-18T03:27:42.718Z,68.40
2023-11-18T03:30:10.417Z,68.60
2023-11-18T03:32:38.518Z,68.70
2023-11-18T03:35:10.394Z,68.60
2023-11-18T03:37:42.208Z,69.30
2023-11-18T03:40:15.866Z,69.10
2023-11-18T03:42:48.306Z,69.10
2023-11-18T03:45:16.232Z,68.50
2023-11-18T03:47:43.107Z,69.20
2023-11-18T03:50:10.669Z,71.00
2023-11-18T03:52:40.358Z,69.70
2023-11-18T03:55:10.284Z,69.40
2023-11-18T03:57:37.014Z,69.70
2023-11-18T04:00:04.432Z,69.40
2023-11-18T04:02:35.733Z,69.30
2023-11-18T04:05:07.196Z,69.30
2023-11-18T04:07:34.176Z,69.70
2023-11-18T04:10:03.582Z,69.90
2023-11-18T04:12:31.550Z,69.90
2023-11-18T04:14:58.332Z,69.10
2023-11-18T04:17:29.001Z,69.30
2023-11-18T04:19:58.482Z,70.50
2023-11-18T04:22:25.287Z,70.30
2023-11-18T04:24:52.077Z,70.20
2023-11-18T04:27:21.219Z,69.90
2023-11-18T04:29:52.345Z,69.40
2023-11-18T04:32:21.562Z,69.40
2023-11-18T04:34:50.407Z,69.60
2023-11-18T04:37:17.123Z,70.30
2023-11-18T04:39:43.796Z,70.40
2023-11-18T04:42:12.993Z,70.70
2023-11-18T04:44:39.689Z,70.60
2023-11-18T04:47:08.825Z,71.10
2023-11-18T04:49:36.141Z,72.00
2023-11-18T04:52:03.013Z,71.30
2023-11-18T04:54:30.477Z,72.70
2023-11-18T04:56:57.227Z,71.70
2023-11-18T04:59:23.939Z,70.90
2023-11-18T05:01:54.021Z,71.20
2023-11-18T05:04:21.043Z,72.30
2023-11-18T05:06:47.742Z,71.80
2023-11-18T05:09:17.175Z,71.70
2023-11-18T05:11:43.947Z,71.20
2023-11-18T05:14:10.648Z,71.70
2023-11-18T05:16:37.366Z,71.10
2023-11-18T05:19:04.188Z,70.70
2023-11-18T05:21:33.095Z,71.20
2023-11-18T05:23:59.783Z,72.80
2023-11-18T05:26:28.008Z,73.30
2023-11-18T05:28:56.927Z,72.90
2023-11-18T05:31:23.650Z,72.90
2023-11-18T05:33:52.951Z,71.50
2023-11-18T05:36:28.592Z,70.20
2023-11-18T05:38:58.036Z,71.10
2023-11-18T05:41:28.916Z,72.30
2023-11-18T05:43:58.864Z,71.90
2023-11-18T05:46:29.115Z,71.90
2023-11-18T05:48:56.919Z,71.70
2023-11-18T05:51:27.723Z,70.70
2023-11-18T05:53:54.815Z,70.50
2023-11-18T05:56:27.535Z,70.50
2023-11-18T05:58:54.763Z,70.70
2023-11-18T06:01:22.129Z,70.50
2023-11-18T06:03:53.647Z,70.50
2023-11-18T06:06:24.443Z,70.30
2023-11-18T06:08:54.678Z,71.50
2023-11-18T06:11:24.475Z,71.60
2023-11-18T06:13:53.853Z,71.00
2023-11-18T06:16:27.766Z,69.90
2023-11-18T06:18:56.019Z,70.60
2023-11-18T06:21:31.272Z,70.20
2023-11-18T06:24:02.328Z,69.50
2023-11-18T06:26:29.518Z,69.30
2023-11-18T06:29:00.740Z,69.00
2023-11-18T06:31:27.468Z,68.50
2023-11-18T06:33:54.455Z,68.10
2023-11-18T06:36:22.501Z,68.30
2023-11-18T06:38:53.913Z,67.70
2023-11-18T06:41:27.688Z,67.60
2023-11-18T06:43:58.068Z,68.70
2023-11-18T06:46:27.204Z,68.60
2023-11-18T06:48:55.514Z,68.50
2023-11-18T06:51:26.402Z,68.50
2023-11-18T06:53:56.623Z,68.30
2023-11-18T06:56:27.453Z,68.50
2023-11-18T06:58:58.150Z,68.90
2023-11-18T07:01:24.894Z,69.50
2023-11-18T07:03:54.538Z,69.60
2023-11-18T07:06:24.349Z,69.10
2023-11-18T07:08:54.311Z,68.50
2023-11-18T07:11:23.523Z,68.90
2023-11-18T07:13:57.560Z,68.40
2023-11-18T07:16:26.054Z,69.20
2023-11-18T07:18:53.850Z,69.10
2023-11-18T07:21:21.146Z,69.60
2023-11-18T07:23:47.972Z,69.50
2023-11-18T07:26:17.279Z,69.70
2023-11-18T07:28:46.368Z,69.60
2023-11-18T07:31:13.360Z,69.80
2023-11-18T07:33:42.660Z,69.10
2023-11-18T07:36:12.307Z,69.40
2023-11-18T07:38:39.093Z,69.50
2023-11-18T07:41:09.606Z,69.30
2023-11-18T07:43:41.692Z,69.60
2023-11-18T07:46:15.644Z,69.50
2023-11-18T07:48:47.177Z,70.10
2023-11-18T07:51:16.080Z,70.50
2023-11-18T07:53:44.959Z,70.80
2023-11-18T07:56:13.878Z,70.30
2023-11-18T07:58:40.622Z,70.10
2023-11-18T08:01:10.116Z,69.80
2023-11-18T08:03:38.425Z,70.20
2023-11-18T08:06:11.222Z,70.40
2023-11-18T08:08:40.621Z,70.40
2023-11-18T08:11:10.066Z,69.50
2023-11-18T08:13:36.767Z,70.30
2023-11-18T08:16:05.919Z,71.10
2023-11-18T08:18:32.836Z,70.90
2023-11-18T08:21:02.854Z,71.20
2023-11-18T08:23:29.681Z,70.50
2023-11-18T08:25:59.187Z,70.90
2023-11-18T08:28:26.878Z,69.70
2023-11-18T08:30:53.937Z,69.50
2023-11-18T08:33:25.579Z,69.60
2023-11-18T08:35:52.598Z,69.00
2023-11-18T08:38:20.939Z,69.00
2023-11-18T08:40:52.692Z,69.20
2023-11-18T08:43:19.447Z,69.30
2023-11-18T08:45:50.498Z,70.00
2023-11-18T08:48:19.977Z,69.30
2023-11-18T08:50:47.943Z,68.90
2023-11-18T08:53:18.934Z,69.00
2023-11-18T08:55:57.724Z,68.90
2023-11-18T08:58:28.925Z,68.40
2023-11-18T09:01:07.001Z,68.50
2023-11-18T09:03:36.943Z,68.60
2023-11-18T09:06:18.586Z,68.30
2023-11-18T09:08:54.327Z,68.00
2023-11-18T09:11:24.079Z,68.00
2023-11-18T09:13:55.535Z,68.20
2023-11-18T09:16:23.705Z,68.60
2023-11-18T09:18:51.996Z,68.60
2023-11-18T09:21:26.363Z,68.70
2023-11-18T09:23:53.339Z,68.90
2023-11-18T09:26:22.848Z,69.20
2023-11-18T09:28:51.392Z,68.70
2023-11-18T09:31:22.339Z,69.00
2023-11-18T09:33:53.747Z,69.00
2023-11-18T09:36:21.572Z,69.10
2023-11-18T09:38:50.747Z,69.40
2023-11-18T09:41:18.159Z,70.00
2023-11-18T09:43:46.572Z,69.90
2023-11-18T09:46:17.728Z,70.20
2023-11-18T09:49:00.919Z,70.10
2023-11-18T09:51:31.470Z,69.70
2023-11-18T09:54:07.335Z,69.50
2023-11-18T09:56:47.033Z,69.70
2023-11-18T09:59:45.713Z,70.10
2023-11-18T10:02:15.378Z,71.40
2023-11-18T10:04:47.453Z,71.80
2023-11-18T10:07:20.319Z,71.60
2023-11-18T10:09:49.995Z,71.60
2023-11-18T10:12:24.841Z,71.30
2023-11-18T10:14:53.311Z,71.90
2023-11-18T10:17:26.127Z,71.70
2023-11-18T10:19:58.676Z,71.40
2023-11-18T10:22:30.473Z,71.20
2023-11-18T10:24:58.530Z,71.40
2023-11-18T10:27:29.167Z,71.20
2023-11-18T10:30:11.574Z,70.70
2023-11-18T10:32:40.613Z,70.80
2023-11-18T10:35:11.930Z,70.10
2023-11-18T10:37:44.454Z,69.90
2023-11-18T10:40:14.855Z,70.50
2023-11-18T10:42:49.781Z,70.50
2023-11-18T10:45:26.070Z,70.40
2023-11-18T10:47:56.993Z,70.10
2023-11-18T10:50:23.768Z,70.20
2023-11-18T10:52:53.568Z,70.10
2023-11-18T10:55:20.423Z,71.30
2023-11-18T10:57:47.521Z,73.20
2023-11-18T11:00:15.013Z,73.90
2023-11-18T11:02:45.039Z,74.90
2023-11-18T11:05:22.239Z,75.70
2023-11-18T11:07:52.947Z,76.30
2023-11-18T11:10:26.293Z,76.20
2023-11-18T11:12:56.795Z,76.30
2023-11-18T11:15:44.755Z,76.70
2023-11-18T11:18:29.798Z,76.50
2023-11-18T11:21:17.622Z,76.70
2023-11-18T11:24:13.510Z,76.90
2023-11-18T11:26:55.962Z,76.90
2023-11-18T11:29:39.235Z,77.20
2023-11-18T11:32:33.191Z,77.20
2023-11-18T11:35:09.446Z,77.10
2023-11-18T11:37:38.111Z,77.20
2023-11-18T11:40:10.418Z,77.50
2023-11-18T11:42:37.523Z,77.90
2023-11-18T11:45:10.039Z,77.60
2023-11-18T11:47:44.460Z,77.30
2023-11-18T11:50:22.677Z,77.30
2023-11-18T11:53:04.355Z,76.70
2023-11-18T11:55:45.816Z,76.70
2023-11-18T11:58:38.036Z,76.40
2023-11-18T12:01:36.226Z,76.50
2023-11-18T12:04:22.061Z,76.50
2023-11-18T12:06:56.829Z,76.60
2023-11-18T12:09:34.108Z,76.30
2023-11-18T12:12:02.083Z,76.50
2023-11-18T12:14:28.903Z,76.60
2023-11-18T12:17:09.290Z,76.40
2023-11-18T12:19:50.629Z,76.40
2023-11-18T12:22:25.995Z,76.70
2023-11-18T12:24:59.336Z,76.20
2023-11-18T12:27:41.622Z,76.30
2023-11-18T12:30:19.799Z,76.70
2023-11-18T12:33:02.013Z,76.60
2023-11-18T12:35:31.432Z,76.80
2023-11-18T12:37:58.117Z,76.50
2023-11-18T12:40:41.733Z,76.50
2023-11-18T12:43:18.710Z,76.20
2023-11-18T12:46:06.809Z,75.80
2023-11-18T12:48:37.934Z,75.20
2023-11-18T12:51:11.223Z,74.60
2023-11-18T12:53:38.056Z,74.70
2023-11-18T12:56:05.381Z,75.00
2023-11-18T12:58:34.711Z,75.50
2023-11-18T13:01:01.472Z,75.70
2023-11-18T13:03:30.966Z,76.40
2023-11-18T13:05:57.930Z,76.00
2023-11-18T13:08:27.904Z,76.50
2023-11-18T13:10:59.512Z,75.80
2023-11-18T13:13:28.039Z,75.40
2023-11-18T13:15:57.198Z,75.30
2023-11-18T13:18:24.117Z,75.50
2023-11-18T13:21:01.339Z,76.20
2023-11-18T13:23:31.431Z,76.40
2023-11-18T13:26:05.109Z,76.20
2023-11-18T13:28:33.289Z,76.00
2023-11-18T13:31:00.049Z,76.40
2023-11-18T13:33:26.964Z,76.20
2023-11-18T13:35:54.241Z,76.30
2023-11-18T13:38:23.377Z,76.70
2023-11-18T13:40:54.844Z,76.70
2023-11-18T13:43:23.266Z,76.40
2023-11-18T13:46:00.318Z,75.80
2023-11-18T13:48:29.475Z,76.60
2023-11-18T13:50:59.689Z,77.00
2023-11-18T13:53:26.604Z,77.40
2023-11-18T13:55:55.136Z,77.80
2023-11-18T13:58:21.871Z,78.20
2023-11-18T14:00:50.263Z,78.50
2023-11-18T14:03:17.733Z,78.50
2023-11-18T14:05:48.212Z,78.90
2023-11-18T14:08:22.321Z,79.00
2023-11-18T14:10:58.268Z,79.20
2023-11-18T14:13:32.428Z,79.10
2023-11-18T14:16:10.568Z,79.00
2023-11-18T14:18:42.994Z,79.30
2023-11-18T14:21:15.185Z,79.60
2023-11-18T14:23:46.588Z,79.70
2023-11-18T14:26:14.599Z,79.10
2023-11-18T14:28:44.689Z,79.20
2023-11-18T14:31:14.411Z,79.20
2023-11-18T14:33:43.659Z,79.00
2023-11-18T14:36:10.760Z,79.20
2023-11-18T14:38:39.710Z,79.70
2023-11-18T14:41:06.580Z,80.20
2023-11-18T14:43:35.738Z,80.30
2023-11-18T14:46:02.535Z,80.70
2023-11-18T14:48:31.776Z,80.90
2023-11-18T14:50:58.438Z,80.90
2023-11-18T14:53:30.314Z,80.70
2023-11-18T14:55:59.350Z,80.70
2023-11-18T14:58:27.090Z,80.90
2023-11-18T15:00:58.031Z,80.80
2023-11-18T15:03:24.936Z,80.90
2023-11-18T15:05:56.441Z,80.70
2023-11-18T15:08:25.820Z,81.00
2023-11-18T15:10:55.433Z,80.90
2023-11-18T15:13:22.171Z,80.50
2023-11-18T15:15:51.108Z,79.90
2023-11-18T15:18:21.237Z,80.30
2023-11-18T15:20:49.138Z,79.90
2023-11-18T15:23:23.274Z,80.10
2023-11-18T15:25:53.226Z,80.60
2023-11-18T15:28:22.498Z,80.20
2023-11-18T15:30:49.891Z,80.80
2023-11-18T15:33:19.193Z,81.20
2023-11-18T15:35:48.497Z,81.60
2023-11-18T15:38:18.840Z,81.90
2023-11-18T15:40:48.897Z,82.20
2023-11-18T15:43:17.821Z,82.10
2023-11-18T15:45:49.939Z,82.40
2023-11-18T15:48:17.083Z,82.30
2023-11-18T15:50:46.295Z,82.30
2023-11-18T15:53:16.262Z,82.60
2023-11-18T15:55:49.202Z,82.60
2023-11-18T15:58:17.290Z,82.80
2023-11-18T16:00:53.223Z,82.40
2023-11-18T16:03:24.638Z,82.10
2023-11-18T16:05:53.652Z,81.90
2023-11-18T16:08:20.420Z,82.10
2023-11-18T16:10:47.417Z,82.30
2023-11-18T16:13:14.547Z,82.20
2023-11-18T16:15:42.327Z,82.40
2023-11-18T16:18:09.319Z,82.60
2023-11-18T16:20:41.092Z,82.50
2023-11-18T16:23:10.538Z,82.80
2023-11-18T16:25:37.541Z,82.70
2023-11-18T16:28:09.652Z,82.50
2023-11-18T16:30:38.245Z,82.30
2023-11-18T16:33:08.841Z,82.40
2023-11-18T16:35:38.277Z,82.50
2023-11-18T16:38:09.764Z,82.80
2023-11-18T16:40:36.502Z,82.80
2023-11-18T16:43:03.257Z,82.60
2023-11-18T16:45:30.128Z,82.90
2023-11-18T16:47:59.342Z,83.00
2023-11-18T16:50:30.504Z,83.00
2023-11-18T16:52:57.887Z,82.50
2023-11-18T16:55:28.011Z,82.50
2023-11-18T16:57:59.066Z,82.60
2023-11-18T17:00:29.004Z,82.80
2023-11-18T17:03:00.107Z,82.40
2023-11-18T17:05:31.806Z,82.60
2023-11-18T17:08:04.731Z,82.90
2023-11-18T17:10:31.572Z,82.40
2023-11-18T17:13:01.256Z,82.60
2023-11-18T17:15:31.047Z,82.40
2023-11-18T17:18:04.307Z,82.40
2023-11-18T17:20:34.449Z,82.50
2023-11-18T17:23:01.289Z,82.30
2023-11-18T17:25:30.796Z,82.50
2023-11-18T17:28:03.423Z,82.60
2023-11-18T17:31:06.076Z,82.50
2023-11-18T17:34:00.600Z,82.80
2023-11-18T17:39:42.897Z,83.10
2023-11-18T17:42:16.529Z,83.30
2023-11-18T17:48:04.286Z,83.00
2023-11-18T17:50:31.020Z,82.70
2023-11-18T17:52:58.740Z,82.80
2023-11-18T17:55:25.715Z,82.70
2023-11-18T17:57:58.017Z,83.00
2023-11-18T18:00:28.219Z,82.90
2023-11-18T18:02:57.578Z,83.10
2023-11-18T18:05:29.008Z,83.30
2023-11-18T18:07:58.202Z,83.30
2023-11-18T18:10:29.578Z,83.30
2023-11-18T18:12:56.807Z,82.90
2023-11-18T18:15:27.573Z,83.20
2023-11-18T18:17:56.909Z,83.10
2023-11-18T18:20:26.500Z,83.20
2023-11-18T18:22:55.656Z,83.20
2023-11-18T18:25:22.475Z,83.20
2023-11-18T18:27:51.729Z,83.30
2023-11-18T18:30:18.687Z,83.60
2023-11-18T18:32:47.939Z,83.50
2023-11-18T18:35:17.938Z,83.20
2023-11-18T18:37:47.512Z,83.50
2023-11-18T18:40:15.733Z,83.50
2023-11-18T18:42:42.657Z,83.30
2023-11-18T18:45:10.207Z,83.20
2023-11-18T18:47:37.048Z,83.00
2023-11-18T18:50:08.616Z,82.80
2023-11-18T18:52:38.617Z,82.90
2023-11-18T18:55:09.678Z,82.90
2023-11-18T18:57:41.597Z,82.80
2023-11-18T19:00:12.954Z,82.80
2023-11-18T19:02:41.229Z,82.80
2023-11-18T19:05:09.852Z,82.50
2023-11-18T19:07:37.204Z,82.90
2023-11-18T19:10:09.176Z,82.90
2023-11-18T19:12:35.908Z,83.00
2023-11-18T19:15:08.543Z,82.60
2023-11-18T19:17:40.957Z,82.80
2023-11-18T19:20:14.623Z,83.00
2023-11-18T19:22:42.908Z,83.10
2023-11-18T19:25:09.777Z,83.00
2023-11-18T19:30:13.290Z,83.50
2023-11-18T19:32:41.511Z,83.30
2023-11-18T19:35:15.701Z,83.60
2023-11-18T19:37:43.683Z,83.30
2023-11-18T19:40:12.243Z,83.40
2023-11-18T19:42:39.276Z,83.30
2023-11-18T19:45:09.549Z,83.10
2023-11-18T19:47:40.281Z,82.90
2023-11-18T19:50:10.570Z,82.60
2023-11-18T19:52:39.876Z,83.20
2023-11-18T19:55:10.298Z,83.30
2023-11-18T19:57:40.070Z,84.00
2023-11-18T20:00:09.156Z,83.70
2023-11-18T20:02:44.954Z,83.70
2023-11-18T20:05:11.946Z,84.20
2023-11-18T20:07:39.799Z,83.90
2023-11-18T20:10:10.844Z,84.30
2023-11-18T20:12:41.110Z,84.20
2023-11-18T20:15:08.643Z,84.20
2023-11-18T20:17:35.525Z,84.30
2023-11-18T20:20:11.078Z,84.10
2023-11-18T20:22:38.620Z,84.30
2023-11-18T20:25:07.898Z,84.20
2023-11-18T20:27:37.334Z,83.70
2023-11-18T20:30:05.869Z,84.10
2023-11-18T20:32:37.532Z,84.40
2023-11-18T20:35:05.980Z,84.10
2023-11-18T20:37:36.000Z,83.80
2023-11-18T20:40:07.704Z,84.00
2023-11-18T20:42:38.543Z,83.80
2023-11-18T20:45:08.707Z,83.90
2023-11-18T20:47:38.520Z,83.50
2023-11-18T20:50:05.517Z,83.40
2023-11-18T20:52:35.219Z,83.30
2023-11-18T20:55:02.754Z,83.50
2023-11-18T20:57:29.465Z,83.40
2023-11-18T20:59:58.050Z,83.40
2023-11-18T21:02:27.104Z,83.20
2023-11-18T21:04:56.338Z,82.30
2023-11-18T21:07:23.251Z,82.40
2023-11-18T21:09:50.021Z,81.90
2023-11-18T21:12:19.120Z,82.00
2023-11-18T21:14:51.774Z,82.90
2023-11-18T21:17:25.824Z,83.00
2023-11-18T21:19:56.576Z,82.70
2023-11-18T21:22:25.868Z,82.20
2023-11-18T21:24:55.455Z,82.40
2023-11-18T21:27:22.318Z,82.20
2023-11-18T21:29:51.458Z,82.90
2023-11-18T21:32:20.854Z,82.90
2023-11-18T21:34:48.682Z,83.20
2023-11-18T21:37:15.349Z,82.90
2023-11-18T21:39:44.379Z,82.50
2023-11-18T21:42:15.077Z,82.20
2023-11-18T21:44:44.412Z,82.60
2023-11-18T21:47:12.242Z,82.60
2023-11-18T21:49:51.690Z,83.20
2023-11-18T21:52:22.256Z,83.10
2023-11-18T21:54:53.089Z,82.90
2023-11-18T21:57:20.090Z,82.80
2023-11-18T21:59:47.209Z,82.60
2023-11-18T22:02:14.127Z,82.50
2023-11-18T22:04:41.268Z,82.90
2023-11-18T22:07:08.088Z,83.20
2023-11-18T22:09:34.819Z,83.40
2023-11-18T22:12:06.790Z,83.80
2023-11-18T22:14:36.669Z,84.00
2023-11-18T22:17:06.014Z,84.00
2023-11-18T22:19:36.144Z,83.60
2023-11-18T22:22:05.365Z,83.90
2023-11-18T22:24:33.024Z,84.10
2023-11-18T22:26:59.702Z,84.20
2023-11-18T22:29:26.519Z,84.20
2023-11-18T22:31:56.595Z,84.20
2023-11-18T22:34:23.343Z,84.50
2023-11-18T22:36:50.066Z,84.40
2023-11-18T22:39:23.977Z,84.20
2023-11-18T22:41:53.053Z,84.40
2023-11-18T22:44:23.649Z,84.40
2023-11-18T22:46:50.733Z,85.00
2023-11-18T22:49:18.045Z,85.10
2023-11-18T22:51:44.827Z,84.90
2023-11-18T22:54:14.029Z,84.90
2023-11-18T22:56:40.901Z,84.50
2023-11-18T22:59:09.883Z,84.70
2023-11-18T23:01:40.807Z,85.10
2023-11-18T23:04:12.799Z,84.80
2023-11-18T23:06:40.263Z,84.60
2023-11-18T23:09:07.004Z,84.80
2023-11-18T23:11:34.404Z,85.20
2023-11-18T23:14:04.650Z,85.40
2023-11-18T23:16:38.621Z,85.40
2023-11-18T23:19:07.829Z,85.00
2023-11-18T23:21:37.140Z,85.00
2023-11-18T23:24:06.754Z,85.20
2023-11-18T23:26:33.444Z,85.20
2023-11-18T23:29:00.267Z,85.10
2023-11-18T23:31:29.401Z,85.30
2023-11-18T23:33:59.062Z,85.20
2023-11-18T23:36:29.908Z,85.10
2023-11-18T23:39:02.665Z,84.90
2023-11-18T23:41:32.070Z,84.90
2023-11-18T23:44:00.971Z,84.70
2023-11-18T23:46:31.953Z,84.60
2023-11-18T23:49:03.325Z,84.40
2023-11-18T23:51:31.222Z,84.50
2023-11-18T23:53:58.276Z,84.70
2023-11-18T23:56:24.945Z,84.80
2023-11-18T23:58:54.226Z,84.70
